createdAt,value
2019-05-13T00:01:34.338Z,11.60
2019-05-13T00:04:03.440Z,11.60
2019-05-13T00:06:30.410Z,11.50
2019-05-13T00:08:58.121Z,11.50
2019-05-13T00:11:25.625Z,11.60
2019-05-13T00:13:53.743Z,11.60
2019-05-13T00:16:23.341Z,11.70
2019-05-13T00:18:50.772Z,11.60
2019-05-13T00:21:18.035Z,11.60
2019-05-13T00:23:45.337Z,11.60
2019-05-13T00:26:14.085Z,11.60
2019-05-13T00:28:44.222Z,11.60
2019-05-13T00:31:11.203Z,11.50
2019-05-13T00:33:38.480Z,11.50
2019-05-13T00:36:05.748Z,11.50
2019-05-13T00:38:33.516Z,11.40
2019-05-13T00:41:03.517Z,11.20
2019-05-13T00:43:30.337Z,11.30
2019-05-13T00:45:57.718Z,11.10
2019-05-13T00:48:25.119Z,11.10
2019-05-13T00:50:54.383Z,11.10
2019-05-13T00:53:23.622Z,11.00
2019-05-13T00:55:53.415Z,11.10
2019-05-13T00:58:20.247Z,11.10
2019-05-13T01:00:47.540Z,11.10
2019-05-13T01:03:14.810Z,11.00
2019-05-13T01:05:44.223Z,10.90
2019-05-13T01:08:11.389Z,10.90
2019-05-13T01:10:38.673Z,11.00
2019-05-13T01:13:06.138Z,11.00
2019-05-13T01:15:34.352Z,11.00
2019-05-13T01:18:04.034Z,10.90
2019-05-13T01:20:31.413Z,10.90
2019-05-13T01:22:58.696Z,10.80
2019-05-13T01:25:26.074Z,10.70
2019-05-13T01:27:53.813Z,10.70
2019-05-13T01:30:23.644Z,10.60
2019-05-13T01:32:50.993Z,10.70
2019-05-13T01:35:18.493Z,10.50
2019-05-13T01:37:46.357Z,10.50
2019-05-13T01:40:13.973Z,10.40
2019-05-13T01:42:41.346Z,10.40
2019-05-13T01:45:09.113Z,10.30
2019-05-13T01:47:36.435Z,10.30
2019-05-13T01:50:04.259Z,10.20
2019-05-13T01:52:31.568Z,10.20
2019-05-13T01:54:58.850Z,10.20
2019-05-13T01:57:26.354Z,10.10
2019-05-13T01:59:53.885Z,10.10
2019-05-13T02:02:21.321Z,10.20
2019-05-13T02:04:48.616Z,10.20
2019-05-13T02:07:15.988Z,10.20
2019-05-13T02:09:44.348Z,10.10
2019-05-13T02:12:13.418Z,10.10
2019-05-13T02:14:41.061Z,10.00
2019-05-13T02:17:08.426Z,9.90
2019-05-13T02:19:35.769Z,9.70
2019-05-13T02:22:04.200Z,9.80
2019-05-13T02:24:33.502Z,9.70
2019-05-13T02:27:03.448Z,9.70
2019-05-13T02:29:30.198Z,9.80
2019-05-13T02:31:57.508Z,9.70
2019-05-13T02:34:24.913Z,9.70
2019-05-13T02:36:52.780Z,9.70
2019-05-13T02:39:22.316Z,9.80
2019-05-13T02:41:52.645Z,9.80
2019-05-13T02:44:22.337Z,9.80
2019-05-13T02:46:48.434Z,9.90
2019-05-13T02:49:15.747Z,9.90
2019-05-13T02:51:43.270Z,9.80
2019-05-13T02:54:12.373Z,9.80
2019-05-13T02:56:42.238Z,9.90
2019-05-13T02:59:13.004Z,9.80
2019-05-13T03:01:38.687Z,9.80
2019-05-13T03:04:05.994Z,9.80
2019-05-13T03:06:33.645Z,9.90
2019-05-13T03:09:03.195Z,10.00
2019-05-13T03:11:32.996Z,10.00
2019-05-13T03:14:03.334Z,9.90
2019-05-13T03:16:38.928Z,9.90
2019-05-13T03:19:06.226Z,10.00
2019-05-13T03:21:33.498Z,10.00
2019-05-13T03:24:03.422Z,9.90
2019-05-13T03:26:32.174Z,10.00
2019-05-13T03:29:02.540Z,10.00
2019-05-13T03:31:35.070Z,9.80
2019-05-13T03:33:58.604Z,9.80
2019-05-13T03:36:26.724Z,9.80
2019-05-13T03:39:05.635Z,9.80
2019-05-13T03:41:27.330Z,9.90
2019-05-13T03:43:57.211Z,9.90
2019-05-13T03:46:25.581Z,9.90
2019-05-13T03:48:53.507Z,9.90
2019-05-13T03:51:22.414Z,9.80
2019-05-13T03:53:53.240Z,9.80
2019-05-13T03:56:19.210Z,9.80
2019-05-13T03:58:47.616Z,9.70
2019-05-13T04:01:15.366Z,9.60
2019-05-13T04:03:44.274Z,9.60
2019-05-13T04:06:13.609Z,9.70
2019-05-13T04:08:43.471Z,9.60
2019-05-13T04:11:12.595Z,9.40
2019-05-13T04:13:42.870Z,9.40
2019-05-13T04:16:12.622Z,9.40
2019-05-13T04:18:39.003Z,9.40
2019-05-13T04:21:06.445Z,9.40
2019-05-13T04:23:33.970Z,9.40
2019-05-13T04:26:03.009Z,9.40
2019-05-13T04:28:32.956Z,9.40
2019-05-13T04:31:03.559Z,9.30
2019-05-13T04:33:33.443Z,9.30
2019-05-13T04:36:02.563Z,9.20
2019-05-13T04:38:29.920Z,9.20
2019-05-13T04:40:58.997Z,9.20
2019-05-13T04:43:30.459Z,9.20
2019-05-13T04:45:56.039Z,9.20
2019-05-13T04:48:23.753Z,9.20
2019-05-13T04:50:53.282Z,9.20
2019-05-13T04:53:22.701Z,9.30
2019-05-13T04:55:52.703Z,9.40
2019-05-13T04:58:23.102Z,9.40
2019-05-13T05:01:14.290Z,9.40
2019-05-13T05:03:49.930Z,9.40
2019-05-13T05:06:42.609Z,9.40
2019-05-13T05:13:07.487Z,9.50
2019-05-13T05:15:55.958Z,9.60
2019-05-13T05:19:03.228Z,9.60
2019-05-13T05:21:38.052Z,9.60
2019-05-13T05:24:58.304Z,9.50
2019-05-13T05:27:48.770Z,9.60
2019-05-13T05:30:53.259Z,9.70
2019-05-13T05:33:57.538Z,9.80
2019-05-13T05:36:55.411Z,9.90
2019-05-13T05:39:24.179Z,9.70
2019-05-13T05:41:54.937Z,9.70
2019-05-13T05:44:25.425Z,9.80
2019-05-13T05:46:54.416Z,9.90
2019-05-13T05:49:24.217Z,10.00
2019-05-13T05:52:03.550Z,10.10
2019-05-13T05:54:34.282Z,10.20
2019-05-13T05:57:03.140Z,10.10
2019-05-13T05:59:32.003Z,10.20
2019-05-13T06:02:02.019Z,10.10
2019-05-13T06:04:32.257Z,10.10
2019-05-13T06:06:58.425Z,10.30
2019-05-13T06:09:25.723Z,10.40
2019-05-13T06:11:53.104Z,10.40
2019-05-13T06:14:21.989Z,10.50
2019-05-13T06:16:51.857Z,10.60
2019-05-13T06:19:22.335Z,10.70
2019-05-13T06:21:51.364Z,10.80
2019-05-13T06:24:18.947Z,10.80
2019-05-13T06:26:46.507Z,10.70
2019-05-13T06:29:13.830Z,10.60
2019-05-13T06:31:41.927Z,10.60
2019-05-13T06:34:09.412Z,10.60
2019-05-13T06:36:37.471Z,10.60
2019-05-13T06:39:06.740Z,10.90
2019-05-13T06:41:34.124Z,10.90
2019-05-13T06:44:02.606Z,11.10
2019-05-13T06:46:32.319Z,11.40
2019-05-13T06:48:59.874Z,11.50
2019-05-13T06:51:27.262Z,11.40
2019-05-13T06:53:54.594Z,11.50
2019-05-13T06:56:21.992Z,11.60
2019-05-13T06:58:51.826Z,11.70
2019-05-13T07:01:18.812Z,11.80
2019-05-13T07:03:46.202Z,11.90
2019-05-13T07:06:13.568Z,12.00
2019-05-13T07:08:41.833Z,12.00
2019-05-13T07:11:18.655Z,12.10
2019-05-13T07:13:38.662Z,12.10
2019-05-13T07:16:06.305Z,12.00
2019-05-13T07:18:33.770Z,12.00
2019-05-13T07:21:02.234Z,12.10
2019-05-13T07:23:31.823Z,12.20
2019-05-13T07:26:01.729Z,12.30
2019-05-13T07:28:32.289Z,12.40
2019-05-13T07:30:59.161Z,12.50
2019-05-13T07:33:26.503Z,12.70
2019-05-13T07:35:58.306Z,12.70
2019-05-13T07:38:23.939Z,12.60
2019-05-13T07:41:01.469Z,12.60
2019-05-13T07:43:31.784Z,12.80
2019-05-13T07:45:58.341Z,12.90
2019-05-13T07:48:27.824Z,13.00
2019-05-13T07:51:00.229Z,13.10
2019-05-13T07:53:24.371Z,13.30
2019-05-13T07:55:52.600Z,13.40
2019-05-13T07:58:22.640Z,13.50
2019-05-13T08:00:51.849Z,13.60
2019-05-13T08:03:21.267Z,13.60
2019-05-13T08:05:48.381Z,13.60
2019-05-13T08:08:15.904Z,13.60
2019-05-13T08:10:43.318Z,13.80
2019-05-13T08:13:11.909Z,14.00
2019-05-13T08:15:41.809Z,14.10
2019-05-13T08:18:08.969Z,14.30
2019-05-13T08:20:36.425Z,14.30
2019-05-13T08:23:03.848Z,14.40
2019-05-13T08:25:31.640Z,14.40
2019-05-13T08:28:01.907Z,14.50
2019-05-13T08:30:28.855Z,14.50
2019-05-13T08:32:56.341Z,14.40
2019-05-13T08:35:23.782Z,14.50
2019-05-13T08:37:51.997Z,14.70
2019-05-13T08:40:21.153Z,14.90
2019-05-13T08:42:48.988Z,15.00
2019-05-13T08:45:16.753Z,14.90
2019-05-13T08:47:44.591Z,15.00
2019-05-13T08:50:13.492Z,15.00
2019-05-13T08:52:42.211Z,15.30
2019-05-13T08:55:13.681Z,15.30
2019-05-13T08:57:41.823Z,15.50
2019-05-13T09:00:09.290Z,15.80
2019-05-13T09:02:36.814Z,15.80
2019-05-13T09:05:04.896Z,15.80
2019-05-13T09:07:32.333Z,15.90
2019-05-13T09:10:01.828Z,15.80
2019-05-13T09:12:35.168Z,16.00
2019-05-13T09:14:59.816Z,15.80
2019-05-13T09:17:27.419Z,15.80
2019-05-13T09:19:55.369Z,16.00
2019-05-13T09:22:23.209Z,15.80
2019-05-13T09:24:53.084Z,15.70
2019-05-13T09:27:22.688Z,15.60
2019-05-13T09:29:51.851Z,15.40
2019-05-13T09:32:21.548Z,15.70
2019-05-13T09:34:52.532Z,15.90
2019-05-13T09:37:22.460Z,16.10
2019-05-13T09:39:51.688Z,16.10
2019-05-13T09:42:21.650Z,15.80
2019-05-13T09:44:52.283Z,15.60
2019-05-13T09:47:21.606Z,15.70
2019-05-13T09:49:48.993Z,15.60
2019-05-13T09:52:17.715Z,15.80
2019-05-13T09:54:45.668Z,15.80
2019-05-13T09:57:13.528Z,16.10
2019-05-13T09:59:42.296Z,16.20
2019-05-13T10:02:12.454Z,16.30
2019-05-13T10:04:43.457Z,16.40
2019-05-13T10:07:12.330Z,16.40
2019-05-13T10:09:39.421Z,16.40
2019-05-13T10:12:06.984Z,16.10
2019-05-13T10:14:34.428Z,16.00
2019-05-13T10:17:06.063Z,15.70
2019-05-13T10:19:32.299Z,15.90
2019-05-13T10:22:00.322Z,16.30
2019-05-13T10:24:27.880Z,16.50
2019-05-13T10:26:55.555Z,16.90
2019-05-13T10:29:23.051Z,17.00
2019-05-13T10:31:51.529Z,17.30
2019-05-13T10:34:19.524Z,17.70
2019-05-13T10:36:46.997Z,17.90
2019-05-13T10:39:15.165Z,17.80
2019-05-13T10:41:43.091Z,17.50
2019-05-13T10:44:12.172Z,17.20
2019-05-13T10:46:42.060Z,17.30
2019-05-13T10:49:09.293Z,17.40
2019-05-13T10:51:36.950Z,17.00
2019-05-13T10:54:04.603Z,16.90
2019-05-13T10:56:32.778Z,16.80
2019-05-13T10:59:02.526Z,16.70
2019-05-13T11:01:32.794Z,17.10
2019-05-13T11:04:02.635Z,17.40
2019-05-13T11:06:32.092Z,17.60
2019-05-13T11:09:02.009Z,17.80
2019-05-13T11:11:32.042Z,17.60
2019-05-13T11:16:29.139Z,17.60
2019-05-13T11:18:57.303Z,17.10
2019-05-13T11:21:25.257Z,16.60
2019-05-13T11:23:53.323Z,16.40
2019-05-13T11:26:21.990Z,16.40
2019-05-13T11:28:55.511Z,16.40
2019-05-13T11:31:23.485Z,16.80
2019-05-13T11:33:52.204Z,19.90
2019-05-13T11:36:22.826Z,23.20
2019-05-13T11:38:49.779Z,25.70
2019-05-13T11:41:19.079Z,26.80
2019-05-13T11:44:08.081Z,26.30
2019-05-13T11:46:16.375Z,25.10
2019-05-13T11:48:44.516Z,23.50
2019-05-13T11:51:13.049Z,22.30
2019-05-13T11:53:41.787Z,21.40
2019-05-13T11:56:11.538Z,20.50
2019-05-13T11:58:42.818Z,19.80
2019-05-13T12:01:09.007Z,19.30
2019-05-13T12:03:36.601Z,18.70
2019-05-13T12:06:04.170Z,18.50
2019-05-13T12:08:34.065Z,20.50
2019-05-13T12:11:04.137Z,23.60
2019-05-13T12:13:32.788Z,24.80
2019-05-13T12:16:03.810Z,25.40
2019-05-13T12:18:29.756Z,25.80
2019-05-13T12:20:57.287Z,26.30
2019-05-13T12:23:24.716Z,26.30
2019-05-13T12:25:53.082Z,25.70
2019-05-13T12:28:20.669Z,24.80
2019-05-13T12:30:48.450Z,24.00
2019-05-13T12:33:16.091Z,23.90
2019-05-13T12:35:43.798Z,24.50
2019-05-13T12:38:13.355Z,25.70
2019-05-13T12:40:42.890Z,26.30
2019-05-13T12:43:13.287Z,27.60
2019-05-13T12:45:43.183Z,29.60
2019-05-13T12:48:09.272Z,32.40
2019-05-13T12:50:36.830Z,35.20
2019-05-13T12:53:04.242Z,36.80
2019-05-13T12:55:33.155Z,37.00
2019-05-13T12:58:02.677Z,38.00
2019-05-13T13:00:32.919Z,38.60
2019-05-13T13:03:02.024Z,39.20
2019-05-13T13:05:36.238Z,39.50
2019-05-13T13:08:18.210Z,39.20
2019-05-13T13:10:28.405Z,38.90
2019-05-13T13:12:56.208Z,39.20
2019-05-13T13:15:37.024Z,40.80
2019-05-13T13:17:54.136Z,42.10
2019-05-13T13:20:24.268Z,41.30
2019-05-13T13:22:51.134Z,38.60
2019-05-13T13:25:23.556Z,36.50
2019-05-13T13:28:09.085Z,35.50
2019-05-13T13:30:17.807Z,36.90
2019-05-13T13:32:45.762Z,37.30
2019-05-13T13:35:14.862Z,36.10
2019-05-13T13:37:45.800Z,32.60
2019-05-13T13:40:12.395Z,28.80
2019-05-13T13:42:43.059Z,27.40
2019-05-13T13:45:09.428Z,28.60
2019-05-13T13:47:36.866Z,31.40
2019-05-13T13:50:04.787Z,31.70
2019-05-13T13:52:33.560Z,30.10
2019-05-13T13:55:04.504Z,28.20
2019-05-13T13:57:32.421Z,25.90
2019-05-13T14:00:32.942Z,24.20
2019-05-13T14:02:29.532Z,24.20
2019-05-13T14:04:57.352Z,26.50
2019-05-13T14:06:28.556Z,17.80
2019-05-13T14:07:34.329Z,29.00
2019-05-13T14:09:55.191Z,31.00
2019-05-13T14:12:22.731Z,32.60
2019-05-13T14:14:52.033Z,33.30
2019-05-13T14:17:21.798Z,32.40
2019-05-13T14:19:48.999Z,31.20
2019-05-13T14:22:16.513Z,29.50
2019-05-13T14:24:44.166Z,28.00
2019-05-13T14:27:12.141Z,27.40
2019-05-13T14:29:45.990Z,27.40
2019-05-13T14:32:09.520Z,27.70
2019-05-13T14:34:37.069Z,28.30
2019-05-13T14:37:04.731Z,29.40
2019-05-13T14:39:35.675Z,29.60
2019-05-13T14:42:02.279Z,27.90
2019-05-13T14:44:32.260Z,26.30
2019-05-13T14:47:01.602Z,25.70
2019-05-13T14:49:31.502Z,25.70
2019-05-13T14:51:58.528Z,25.10
2019-05-13T14:54:26.109Z,26.20
2019-05-13T14:56:54.034Z,29.00
2019-05-13T14:59:22.215Z,31.50
2019-05-13T15:01:52.802Z,34.00
2019-05-13T15:04:22.325Z,36.00
2019-05-13T15:06:49.949Z,36.70
2019-05-13T15:09:17.670Z,35.70
2019-05-13T15:11:46.191Z,34.50
2019-05-13T15:14:13.817Z,32.90
2019-05-13T15:16:42.430Z,33.20
2019-05-13T15:19:12.006Z,34.80
2019-05-13T15:21:41.369Z,36.10
2019-05-13T15:24:09.020Z,36.90
2019-05-13T15:26:37.148Z,37.00
2019-05-13T15:29:05.142Z,36.20
2019-05-13T15:31:33.481Z,34.10
2019-05-13T15:34:02.564Z,32.00
2019-05-13T15:36:31.575Z,30.10
2019-05-13T15:39:01.428Z,28.30
2019-05-13T15:41:29.155Z,27.00
2019-05-13T15:43:56.983Z,25.80
2019-05-13T15:46:24.914Z,24.80
2019-05-13T15:48:52.608Z,24.00
2019-05-13T15:51:22.102Z,23.60
2019-05-13T15:53:51.696Z,23.20
2019-05-13T15:56:18.985Z,22.60
2019-05-13T15:58:48.423Z,22.00
2019-05-13T16:01:16.015Z,21.30
2019-05-13T16:03:44.110Z,20.70
2019-05-13T16:06:11.707Z,20.20
2019-05-13T16:08:43.128Z,20.00
2019-05-13T16:11:09.257Z,19.70
2019-05-13T16:13:37.596Z,19.80
2019-05-13T16:16:05.203Z,19.90
2019-05-13T16:18:32.629Z,19.90
2019-05-13T16:21:01.575Z,19.80
2019-05-13T16:23:31.970Z,19.70
2019-05-13T16:26:00.874Z,19.20
2019-05-13T16:28:28.424Z,19.00
2019-05-13T16:30:56.014Z,18.70
2019-05-13T16:33:23.573Z,18.70
2019-05-13T16:35:51.785Z,19.00
2019-05-13T16:38:21.834Z,20.20
2019-05-13T16:40:48.684Z,22.40
2019-05-13T16:43:16.191Z,24.50
2019-05-13T16:45:44.183Z,24.70
2019-05-13T16:48:14.182Z,23.60
2019-05-13T16:50:41.995Z,22.40
2019-05-13T16:53:09.506Z,21.20
2019-05-13T16:55:37.177Z,20.50
2019-05-13T16:58:04.746Z,20.00
2019-05-13T17:00:32.771Z,19.60
2019-05-13T17:03:02.366Z,19.30
2019-05-13T17:05:51.385Z,19.20
2019-05-13T17:08:20.143Z,19.10
2019-05-13T17:10:48.477Z,19.00
2019-05-13T17:13:17.623Z,18.80
2019-05-13T17:16:06.689Z,18.70
2019-05-13T17:18:34.391Z,18.60
2019-05-13T17:21:01.985Z,18.40
2019-05-13T17:23:29.665Z,18.20
2019-05-13T17:25:57.310Z,17.90
2019-05-13T17:28:25.073Z,17.90
2019-05-13T17:30:52.716Z,17.70
2019-05-13T17:33:22.851Z,17.60
2019-05-13T17:35:50.120Z,17.60
2019-05-13T17:38:17.704Z,17.60
2019-05-13T17:40:49.640Z,17.50
2019-05-13T17:43:14.751Z,17.50
2019-05-13T17:45:43.457Z,17.30
2019-05-13T17:48:25.117Z,17.30
2019-05-13T17:50:41.916Z,17.10
2019-05-13T17:53:11.346Z,17.10
2019-05-13T17:55:39.586Z,17.10
2019-05-13T17:58:07.020Z,17.30
2019-05-13T18:00:34.872Z,17.60
2019-05-13T18:03:02.281Z,18.10
2019-05-13T18:05:31.481Z,18.30
2019-05-13T18:07:59.139Z,18.20
2019-05-13T18:10:26.727Z,18.00
2019-05-13T18:12:55.204Z,17.80
2019-05-13T18:15:23.013Z,17.50
2019-05-13T18:17:52.295Z,17.20
2019-05-13T18:20:21.709Z,16.90
2019-05-13T18:22:52.149Z,16.70
2019-05-13T18:25:22.160Z,16.50
2019-05-13T18:27:49.070Z,16.40
2019-05-13T18:30:16.703Z,16.30
2019-05-13T18:32:44.645Z,16.20
2019-05-13T18:35:12.873Z,16.20
2019-05-13T18:37:41.930Z,16.10
2019-05-13T18:40:11.578Z,16.00
2019-05-13T18:42:42.124Z,16.00
2019-05-13T18:45:11.513Z,16.00
2019-05-13T18:47:39.905Z,15.90
2019-05-13T18:50:07.764Z,15.80
2019-05-13T18:52:35.635Z,15.60
2019-05-13T18:55:03.603Z,15.50
2019-05-13T18:57:31.896Z,15.40
2019-05-13T19:00:01.839Z,15.30
2019-05-13T19:02:29.199Z,15.20
2019-05-13T19:04:57.080Z,15.10
2019-05-13T19:07:24.770Z,15.00
2019-05-13T19:09:52.704Z,15.00
2019-05-13T19:12:21.936Z,14.90
2019-05-13T19:14:51.630Z,14.70
2019-05-13T19:17:19.578Z,14.70
2019-05-13T19:19:47.323Z,14.50
2019-05-13T19:22:15.478Z,14.50
2019-05-13T19:24:43.618Z,14.50
2019-05-13T19:27:12.004Z,14.40
2019-05-13T19:29:42.243Z,14.30
2019-05-13T19:32:09.675Z,14.20
2019-05-13T19:34:42.140Z,14.10
2019-05-13T19:37:11.396Z,14.00
2019-05-13T19:39:39.584Z,14.00
2019-05-13T19:42:07.320Z,14.00
2019-05-13T19:44:34.965Z,13.80
2019-05-13T19:47:02.788Z,13.70
2019-05-13T19:49:36.120Z,13.70
2019-05-13T19:52:01.863Z,13.60
2019-05-13T19:54:31.441Z,13.50
2019-05-13T19:57:01.213Z,13.40
2019-05-13T19:59:28.662Z,13.30
2019-05-13T20:01:56.232Z,13.20
2019-05-13T20:04:24.086Z,13.10
2019-05-13T20:06:51.968Z,13.10
2019-05-13T20:09:21.604Z,13.00
2019-05-13T20:11:55.215Z,13.00
2019-05-13T20:14:22.215Z,12.90
2019-05-13T20:16:49.358Z,12.80
2019-05-13T20:19:16.944Z,12.80
2019-05-13T20:21:44.476Z,12.80
2019-05-13T20:24:12.377Z,12.70
2019-05-13T20:26:41.408Z,12.70
2019-05-13T20:29:12.137Z,12.60
2019-05-13T20:31:41.315Z,12.60
2019-05-13T20:34:11.607Z,12.50
2019-05-13T20:36:38.480Z,12.50
2019-05-13T20:39:06.645Z,12.50
2019-05-13T20:41:34.538Z,12.40
2019-05-13T20:44:02.107Z,12.30
2019-05-13T20:46:29.799Z,12.30
2019-05-13T20:48:57.338Z,12.30
2019-05-13T20:51:24.841Z,12.40
2019-05-13T20:53:52.425Z,12.40
2019-05-13T20:56:21.417Z,12.40
2019-05-13T20:58:51.354Z,12.30
2019-05-13T21:01:18.799Z,12.10
2019-05-13T21:03:46.458Z,12.00
2019-05-13T21:06:14.046Z,12.00
2019-05-13T21:08:42.523Z,11.90
2019-05-13T21:11:11.458Z,11.70
2019-05-13T21:13:41.226Z,11.70
2019-05-13T21:16:11.244Z,11.70
2019-05-13T21:18:38.404Z,11.80
2019-05-13T21:21:06.455Z,11.80
2019-05-13T21:23:33.897Z,11.70
2019-05-13T21:26:01.852Z,11.80
2019-05-13T21:28:29.305Z,11.70
2019-05-13T21:30:56.892Z,11.70
2019-05-13T21:33:24.370Z,11.60
2019-05-13T21:35:51.819Z,11.50
2019-05-13T21:38:21.924Z,11.60
2019-05-13T21:40:48.706Z,11.60
2019-05-13T21:43:16.194Z,11.60
2019-05-13T21:45:43.695Z,11.60
2019-05-13T21:48:11.144Z,11.60
2019-05-13T21:50:41.053Z,11.60
2019-05-13T21:53:08.342Z,11.60
2019-05-13T21:55:35.755Z,11.60
2019-05-13T21:58:03.484Z,11.50
2019-05-13T22:00:41.542Z,11.20
2019-05-13T22:03:11.445Z,11.00
2019-05-13T22:05:38.537Z,11.00
2019-05-13T22:08:06.339Z,11.00
2019-05-13T22:10:33.858Z,11.10
2019-05-13T22:13:01.600Z,11.20
2019-05-13T22:15:29.102Z,11.20
2019-05-13T22:17:56.539Z,11.20
2019-05-13T22:20:24.088Z,11.20
2019-05-13T22:22:52.074Z,11.20
2019-05-13T22:25:19.619Z,11.20
2019-05-13T22:27:47.520Z,11.10
2019-05-13T22:30:15.021Z,11.00
2019-05-13T22:32:42.485Z,11.00
2019-05-13T22:35:11.236Z,10.90
2019-05-13T22:37:38.737Z,10.90
2019-05-13T22:40:06.878Z,10.80
2019-05-13T22:42:34.556Z,10.70
2019-05-13T22:45:02.919Z,10.70
2019-05-13T22:47:31.489Z,10.60
2019-05-13T22:50:01.733Z,10.60
2019-05-13T22:52:28.544Z,10.50
2019-05-13T22:54:56.218Z,10.40
2019-05-13T22:57:24.094Z,10.30
2019-05-13T22:59:52.004Z,10.30
2019-05-13T23:02:21.794Z,10.30
2019-05-13T23:04:51.057Z,10.30
2019-05-13T23:07:18.095Z,10.30
2019-05-13T23:09:45.551Z,10.20
2019-05-13T23:12:13.085Z,10.10
2019-05-13T23:14:41.413Z,10.10
2019-05-13T23:17:08.919Z,10.00
2019-05-13T23:19:36.238Z,9.90
2019-05-13T23:22:04.616Z,9.90
2019-05-13T23:24:31.973Z,9.90
2019-05-13T23:27:01.944Z,9.90
2019-05-13T23:29:29.067Z,9.80
2019-05-13T23:31:56.370Z,9.80
2019-05-13T23:34:23.808Z,9.80
2019-05-13T23:36:51.616Z,9.80
2019-05-13T23:39:21.462Z,9.70
2019-05-13T23:41:48.430Z,9.70
2019-05-13T23:44:24.946Z,9.60
2019-05-13T23:46:45.446Z,9.60
2019-05-13T23:49:12.741Z,9.60
2019-05-13T23:51:41.334Z,9.60
2019-05-13T23:54:08.974Z,9.50
2019-05-13T23:56:36.286Z,9.50
2019-05-13T23:59:06.635Z,9.40
